Monson, ME

09:09 PM EST on Februarie 10, 2016 (GMT -0500)
Abbot/Blanchard | | Change Station
CLOSE
Current Station
Personal Weather Stations
Location: Abbot, ME
Elevation: 735 ft
Nearby Weather Stations

Elev 735 ft 45.22 °N, 69.55 °W | Updated 54 seconds ago

Toe getrek
Toe getrek
20.5 °F
Feels Like 20 °F
N
0.0
Wind Veranderlik Wind from SSW
Gusts 0.0 mph

Vandag
High -- | Low -- °F
--% Chance of Precip.
Yesterday
High -- | Low -- °F
Precip. -- in
Druk 29.57 in
Sigbaarheid 10.0 myle
Wolke Few 2100 ft
Meestal Bewolk 5000 ft
Toe getrek 7500 ft
Wind afkoel 20 °F
Dou-punt 19 °F
Humiditeit 94%
Rainfall 0.00 in
Snow Depth Not available.
6:47 AM 4:57 PM
Waxing Crescent, 8% visible
METAR KMLT 110153Z AUTO 00000KT 10SM FEW021 BKN050 OVC075 M06/M08 A2953 RMK AO2 SLP011 T10611083
Druk 29.57 in
Sigbaarheid 10.0 myle
Wolke Few 2100 ft
Meestal Bewolk 5000 ft
Toe getrek 7500 ft
Wind afkoel 20 °F
Dou-punt 19 °F
Humiditeit 94%
Rainfall 0.00 in
Snow Depth Not available.
6:47 AM 4:57 PM
Waxing Crescent, 8% visible
METAR KMLT 110153Z AUTO 00000KT 10SM FEW021 BKN050 OVC075 M06/M08 A2953 RMK AO2 SLP011 T10611083

10-Day Weather Forecast

Almanac

Astronomy

Feb. 10, 2016 Rise Set
Ware Tyd
Civil Twilight
Nautical Twilight
Astronomical Twilight
Maan
Length Of Visible Light
Length of Day
Tomorrow will be .
, % of the Moon is Illuminated

Today's Extremes

State Highs State Lows

Community

WunderPhotos

Upload Photos

1,891,974 photos uploaded!

WunderBlog® & News

Nearby

Air Quality

  Air Quality AQ Index Pollutant
Not available.

Snow Depth

Station Depth Elevation

Earthquake Activity

Stad Distance Mag. Time & Date
Minimum magnitude displayed is 2.5.

Coastal Water Temperatures

Plek Temperatuur

Stations

Nearby Weather Stations

Station Location Temp Wind afkoel Dou-punt Humiditeit Wind Precip. Elev Opdateer Type
                   

Watches & Warnings

There are currently no watches in effect.